ヘルシンキ/ヴァンター の空港の天気 - METARとTAF

ヘルシンキ・ヴァンター国際空港 ( EFHK / HEL ) - フィンランド ヴァンター
飛行場実況気象(Metar)
観測時間11/30 13:20 EET (11/30 11:20 UTC)
風向・風速東北東 2m/s
視程3000m
天気現象弱い雪
少しの雲 雲底高度 60m
全天の8割程度の雲 雲底高度 120m
全天を覆う雲 雲底高度 670m
気温0℃
湿度100%
気圧1017hPa
METAREFHK 301120Z 07004KT 3000 -SN FEW002 BKN004 OVC022 M00/M00 Q1017 TEMPO 5000
過去の天気等 Google飛行場航空写真 Wunderground天気予報

過去48時間のMETAR

飛行場予報(TAF)
発表時間: 11/30 13:30 EET (11/30 11:30 UTC)
予報対象時間: 30日14時 EET ~ 1日14時 EET
風向・風速東北東 3m/s
視程3000m
天気現象弱い雪
全天の8割程度の雲 雲底高度 120m
30日14時 EET ~ 30日16時 EET に徐々に
視程8000m
全天の8割程度の雲 雲底高度 150m
30日16時 EET ~ 1日6時 EET に一時的に
視程4000m
天気現象弱い雪雨
全天の4割程度の雲 雲底高度 120m
全天の8割程度の雲 雲底高度 300m
1日6時 EET ~ 1日8時 EET に徐々に
風向・風速南南西 5m/s
視程7000m
天気現象弱い雨
全天の8割程度の雲 雲底高度 300m
1日8時 EET ~ 1日11時 EET に一時的に
視程10km以上
全天の4割程度の雲 雲底高度 240m
全天の8割程度の雲 雲底高度 460m
1日11時 EET ~ 1日13時 EET に徐々に
視程10km以上
全天の4割程度の雲 雲底高度 300m
全天の8割程度の雲 雲底高度 910m
TAF EFHK 301130Z 3012/0112 07006KT 3000 -SN BKN004
BECMG 3012/3014 8000 BKN005
TEMPO 3014/0104 4000 -SNRA SCT004 BKN010
BECMG 0104/0106 21010KT 7000 -RA BKN010
TEMPO 0106/0109 9999 SCT008 BKN015
BECMG 0109/0111 9999 SCT010 BKN030